TimeEST,TemperatureF,Dew PointF,Humidity,Sea Level PressureIn,VisibilityMPH,Wind Direction,Wind SpeedMPH,Gust SpeedMPH,PrecipitationIn,Events,Conditions,WindDirDegrees,DateUTC
12:53 AM,9.0,3.9,80,30.25,10.0,Calm,Calm,-,N/A,,Clear,0,2003-01-18 05:53:00
1:53 AM,6.1,3.0,87,30.24,10.0,Calm,Calm,-,N/A,,Clear,0,2003-01-18 06:53:00
2:53 AM,3.9,1.9,91,30.25,10.0,SSW,3.5,-,N/A,,Partly Cloudy,200,2003-01-18 07:53:00
3:18 AM,3.2,3.2,100,30.17,10.0,Calm,Calm,-,N/A,,Mostly Cloudy,0,2003-01-18 08:18:00
3:40 AM,3.2,1.4,92,30.17,10.0,Calm,Calm,-,N/A,,Scattered Clouds,0,2003-01-18 08:40:00
3:53 AM,1.9,-0.0,91,30.24,10.0,Calm,Calm,-,N/A,,Clear,0,2003-01-18 08:53:00
4:20 AM,1.4,-0.4,92,30.16,10.0,South,3.5,-,N/A,,Mostly Cloudy,180,2003-01-18 09:20:00
4:53 AM,1.0,-0.9,91,30.23,10.0,SSW,4.6,-,N/A,,Mostly Cloudy,200,2003-01-18 09:53:00
5:53 AM,3.0,1.0,91,30.23,10.0,SSW,3.5,-,N/A,,Mostly Cloudy,200,2003-01-18 10:53:00
6:07 AM,3.2,1.4,92,30.15,10.0,South,3.5,-,N/A,,Scattered Clouds,190,2003-01-18 11:07:00
6:53 AM,3.9,1.0,88,30.23,10.0,SSW,3.5,-,N/A,,Partly Cloudy,200,2003-01-18 11:53:00
7:53 AM,5.0,1.9,87,30.23,10.0,South,3.5,-,N/A,,Partly Cloudy,190,2003-01-18 12:53:00
8:53 AM,8.1,6.1,92,30.23,10.0,South,4.6,-,N/A,,Scattered Clouds,190,2003-01-18 13:53:00
9:01 AM,8.6,6.8,92,30.15,10.0,South,4.6,-,N/A,,Mostly Cloudy,190,2003-01-18 14:01:00
9:11 AM,8.6,6.8,92,30.15,10.0,South,4.6,-,N/A,,Scattered Clouds,190,2003-01-18 14:11:00
9:53 AM,10.9,5.0,77,30.21,10.0,SSW,8.1,-,N/A,,Mostly Cloudy,200,2003-01-18 14:53:00
10:53 AM,12.9,6.1,74,30.20,10.0,SSW,8.1,-,N/A,,Overcast,210,2003-01-18 15:53:00
11:53 AM,15.1,7.0,70,30.15,10.0,SSW,5.8,-,N/A,,Overcast,210,2003-01-18 16:53:00
12:53 PM,16.0,6.1,65,30.10,10.0,SSW,11.5,-,N/A,,Scattered Clouds,200,2003-01-18 17:53:00
1:53 PM,18.0,7.0,62,30.04,10.0,SW,8.1,-,0.02,,Clear,220,2003-01-18 18:53:00
2:53 PM,19.0,7.0,59,30.02,10.0,SW,8.1,-,0.02,,Clear,230,2003-01-18 19:53:00
3:53 PM,19.0,6.1,57,30.01,10.0,Variable,5.8,-,N/A,,Clear,0,2003-01-18 20:53:00
4:53 PM,19.0,5.0,54,29.99,10.0,SSW,6.9,-,N/A,,Mostly Cloudy,210,2003-01-18 21:53:00
5:53 PM,17.1,5.0,59,29.99,10.0,SSW,4.6,-,N/A,,Clear,210,2003-01-18 22:53:00
6:53 PM,17.1,5.0,59,29.99,10.0,SSW,3.5,-,N/A,,Clear,210,2003-01-18 23:53:00
7:53 PM,14.0,6.1,71,30.00,10.0,SSW,3.5,-,N/A,,Clear,200,2003-01-19 00:53:00
8:53 PM,15.1,6.1,68,29.99,10.0,Calm,Calm,-,N/A,,Clear,0,2003-01-19 01:53:00
9:53 PM,16.0,5.0,62,29.99,10.0,SSW,4.6,-,N/A,,Overcast,210,2003-01-19 02:53:00
10:53 PM,17.1,7.0,65,29.99,10.0,SSW,5.8,-,N/A,,Overcast,200,2003-01-19 03:53:00
11:53 PM,16.0,15.1,96,29.99,4.0,SSW,8.1,-,0.00,Snow,Light Snow,210,2003-01-19 04:53:00